Bismarck (BIS/KBIS)

Map

Destinations

Information

Location
Bismarck, ND
Local Time
13:24 / 1:24 pm
GMT Time
18:24 / 6:24 pm
Gates
10
No FAA reported delays
METAR KBIS 201752Z 24016G28KT 10SM CLR 20/04 A2973 RMK AO2 PK WND 24028/1738 SLP066 T02000039 10200 20056 56001
TAF KBIS 201721Z 2018/2118 23014G24KT P6SM SKC FM210100 17009KT P6SM SCT250 FM210600 16010KT P6SM FEW140 SCT250 WS020/19040KT FM211000 14009KT P6SM BKN120 WS015/20030KT FM211200 14008KT P6SM BKN100 FM211700 17012G20KT P6SM SCT200